Atlanta, Georgia
Traffic Map
Current Weather Conditions
Atlanta, Georgia
Scattered Clouds
Scattered Clouds
16°
Feels Like: 16°
Wind Chill: 16° Ceiling: Unl
Heat Index: 16° Visibility: 10mi
Dew Point: -4° Wind: 10mph
Humidity: 26% Direction: 340° (NNW)
Pressure: 29.99in Gusts: 0mph
Raw Report DataKATL 252052Z 34009KT 10SM FEW150 SCT180 SCT250 16/M04 A2999 RMK AO2 SLP155 T01561039 56018
Traffic Incident Summary
Active as of:
Severity:
Category:
InformationThere was an issue retrieving the traffic information for this location. Please try a different location or try again shortly.
Advertisements
Track Severe Weather on mobile